sensor_id;sensor_type;location;lat;lon;timestamp;temperature;humidity
51557;DHT22;38766;53.194;5.532;2023-02-28T00:01:04;6.20;99.90
51557;DHT22;38766;53.194;5.532;2023-02-28T00:03:30;6.20;99.90
51557;DHT22;38766;53.194;5.532;2023-02-28T00:05:55;6.20;99.90
51557;DHT22;38766;53.194;5.532;2023-02-28T00:08:21;6.20;99.90
51557;DHT22;38766;53.194;5.532;2023-02-28T00:10:47;6.20;99.90
51557;DHT22;38766;53.194;5.532;2023-02-28T00:13:12;6.20;99.90
51557;DHT22;38766;53.194;5.532;2023-02-28T00:15:41;6.20;99.90
51557;DHT22;38766;53.194;5.532;2023-02-28T00:18:06;6.20;99.90
51557;DHT22;38766;53.194;5.532;2023-02-28T00:20:32;6.10;99.90
51557;DHT22;38766;53.194;5.532;2023-02-28T00:23:01;6.10;99.90
51557;DHT22;38766;53.194;5.532;2023-02-28T00:25:26;6.10;99.90
51557;DHT22;38766;53.194;5.532;2023-02-28T00:27:52;6.10;99.90
51557;DHT22;38766;53.194;5.532;2023-02-28T00:30:20;6.10;99.90
51557;DHT22;38766;53.194;5.532;2023-02-28T00:32:46;6.10;99.90
51557;DHT22;38766;53.194;5.532;2023-02-28T00:35:12;6.10;99.90
51557;DHT22;38766;53.194;5.532;2023-02-28T00:37:38;6.10;99.90
51557;DHT22;38766;53.194;5.532;2023-02-28T00:40:04;6.10;99.90
51557;DHT22;38766;53.194;5.532;2023-02-28T00:42:32;6.10;99.90
51557;DHT22;38766;53.194;5.532;2023-02-28T00:44:58;6.10;99.90
51557;DHT22;38766;53.194;5.532;2023-02-28T00:47:23;6.10;99.90
51557;DHT22;38766;53.194;5.532;2023-02-28T00:49:49;6.10;99.90
51557;DHT22;38766;53.194;5.532;2023-02-28T00:52:14;6.10;99.90
51557;DHT22;38766;53.194;5.532;2023-02-28T00:54:40;6.10;99.90
51557;DHT22;38766;53.194;5.532;2023-02-28T00:57:06;6.10;99.90
51557;DHT22;38766;53.194;5.532;2023-02-28T00:59:31;6.10;99.90
51557;DHT22;38766;53.194;5.532;2023-02-28T01:01:57;6.10;99.90
51557;DHT22;38766;53.194;5.532;2023-02-28T01:04:22;6.10;99.90
51557;DHT22;38766;53.194;5.532;2023-02-28T01:06:48;6.10;99.90
51557;DHT22;38766;53.194;5.532;2023-02-28T01:09:14;6.10;99.90
51557;DHT22;38766;53.194;5.532;2023-02-28T01:11:39;6.10;99.90
51557;DHT22;38766;53.194;5.532;2023-02-28T01:14:08;6.10;99.90
51557;DHT22;38766;53.194;5.532;2023-02-28T01:16:34;6.10;99.90
51557;DHT22;38766;53.194;5.532;2023-02-28T01:18:59;6.00;99.90
51557;DHT22;38766;53.194;5.532;2023-02-28T01:21:25;6.00;99.90
51557;DHT22;38766;53.194;5.532;2023-02-28T01:23:51;6.00;99.90
51557;DHT22;38766;53.194;5.532;2023-02-28T01:26:19;6.00;99.90
51557;DHT22;38766;53.194;5.532;2023-02-28T01:28:45;6.00;99.90
51557;DHT22;38766;53.194;5.532;2023-02-28T01:31:11;6.00;99.90
51557;DHT22;38766;53.194;5.532;2023-02-28T01:33:38;6.00;99.90
51557;DHT22;38766;53.194;5.532;2023-02-28T01:36:19;6.00;99.90
51557;DHT22;38766;53.194;5.532;2023-02-28T01:38:46;6.00;99.90
51557;DHT22;38766;53.194;5.532;2023-02-28T01:41:27;6.00;99.90
51557;DHT22;38766;53.194;5.532;2023-02-28T01:46:37;6.00;99.90
51557;DHT22;38766;53.194;5.532;2023-02-28T01:49:15;6.10;99.90
51557;DHT22;38766;53.194;5.532;2023-02-28T01:51:54;6.10;99.90
51557;DHT22;38766;53.194;5.532;2023-02-28T01:54:40;6.10;99.90
51557;DHT22;38766;53.194;5.532;2023-02-28T01:57:12;6.10;99.90
51557;DHT22;38766;53.194;5.532;2023-02-28T01:59:47;6.10;99.90
51557;DHT22;38766;53.194;5.532;2023-02-28T02:02:18;6.00;99.90
51557;DHT22;38766;53.194;5.532;2023-02-28T02:04:57;6.00;99.90
51557;DHT22;38766;53.194;5.532;2023-02-28T02:07:25;6.00;99.90
51557;DHT22;38766;53.194;5.532;2023-02-28T02:10:13;6.00;99.90
51557;DHT22;38766;53.194;5.532;2023-02-28T02:15:31;6.00;99.90
51557;DHT22;38766;53.194;5.532;2023-02-28T02:18:01;6.10;99.90
51557;DHT22;38766;53.194;5.532;2023-02-28T02:25:52;6.10;99.90
51557;DHT22;38766;53.194;5.532;2023-02-28T02:36:49;6.20;99.90
51557;DHT22;38766;53.194;5.532;2023-02-28T02:42:24;6.20;99.90
51557;DHT22;38766;53.194;5.532;2023-02-28T02:44:58;6.20;99.90
51557;DHT22;38766;53.194;5.532;2023-02-28T02:47:29;6.20;99.90
51557;DHT22;38766;53.194;5.532;2023-02-28T02:49:57;6.20;99.90
51557;DHT22;38766;53.194;5.532;2023-02-28T02:52:34;6.20;99.90
51557;DHT22;38766;53.194;5.532;2023-02-28T02:55:02;6.20;99.90
51557;DHT22;38766;53.194;5.532;2023-02-28T02:57:35;6.20;99.90
51557;DHT22;38766;53.194;5.532;2023-02-28T03:00:04;6.20;99.90
51557;DHT22;38766;53.194;5.532;2023-02-28T03:02:31;6.20;99.90
51557;DHT22;38766;53.194;5.532;2023-02-28T03:05:02;6.20;99.90
51557;DHT22;38766;53.194;5.532;2023-02-28T03:07:29;6.30;99.90
51557;DHT22;38766;53.194;5.532;2023-02-28T03:09:56;6.30;99.90
51557;DHT22;38766;53.194;5.532;2023-02-28T03:12:50;6.30;99.90
51557;DHT22;38766;53.194;5.532;2023-02-28T03:15:24;6.30;99.90
51557;DHT22;38766;53.194;5.532;2023-02-28T03:20:44;6.30;99.90
51557;DHT22;38766;53.194;5.532;2023-02-28T03:23:23;6.30;99.90
51557;DHT22;38766;53.194;5.532;2023-02-28T03:28:40;6.40;99.90
51557;DHT22;38766;53.194;5.532;2023-02-28T03:31:12;6.30;99.90
51557;DHT22;38766;53.194;5.532;2023-02-28T03:33:45;6.30;99.90
51557;DHT22;38766;53.194;5.532;2023-02-28T03:36:18;6.30;99.90
51557;DHT22;38766;53.194;5.532;2023-02-28T03:39:21;6.30;99.90
51557;DHT22;38766;53.194;5.532;2023-02-28T03:41:45;6.30;99.90
51557;DHT22;38766;53.194;5.532;2023-02-28T03:44:17;6.40;99.90
51557;DHT22;38766;53.194;5.532;2023-02-28T03:46:57;6.30;99.90
51557;DHT22;38766;53.194;5.532;2023-02-28T03:49:27;6.40;99.90
51557;DHT22;38766;53.194;5.532;2023-02-28T03:51:55;6.40;99.90
51557;DHT22;38766;53.194;5.532;2023-02-28T03:54:30;6.40;99.90
51557;DHT22;38766;53.194;5.532;2023-02-28T03:57:02;6.40;99.90
51557;DHT22;38766;53.194;5.532;2023-02-28T03:59:32;6.40;99.90
51557;DHT22;38766;53.194;5.532;2023-02-28T04:02:00;6.40;99.90
51557;DHT22;38766;53.194;5.532;2023-02-28T04:04:29;6.40;99.90
51557;DHT22;38766;53.194;5.532;2023-02-28T04:07:06;6.40;99.90
51557;DHT22;38766;53.194;5.532;2023-02-28T04:09:32;6.40;99.90
51557;DHT22;38766;53.194;5.532;2023-02-28T04:11:58;6.40;99.90
51557;DHT22;38766;53.194;5.532;2023-02-28T04:14:24;6.40;99.90
51557;DHT22;38766;53.194;5.532;2023-02-28T04:16:50;6.40;99.90
51557;DHT22;38766;53.194;5.532;2023-02-28T04:19:19;6.40;99.90
51557;DHT22;38766;53.194;5.532;2023-02-28T04:21:47;6.30;99.90
51557;DHT22;38766;53.194;5.532;2023-02-28T04:24:15;6.40;99.90
51557;DHT22;38766;53.194;5.532;2023-02-28T04:26:44;6.40;99.90
51557;DHT22;38766;53.194;5.532;2023-02-28T04:29:12;6.40;99.90
51557;DHT22;38766;53.194;5.532;2023-02-28T04:31:39;6.50;99.90
51557;DHT22;38766;53.194;5.532;2023-02-28T04:34:05;6.30;99.90
51557;DHT22;38766;53.194;5.532;2023-02-28T04:36:31;6.30;99.90
51557;DHT22;38766;53.194;5.532;2023-02-28T04:38:57;6.40;99.90
51557;DHT22;38766;53.194;5.532;2023-02-28T04:41:23;6.40;99.90
51557;DHT22;38766;53.194;5.532;2023-02-28T04:43:50;6.40;99.90
51557;DHT22;38766;53.194;5.532;2023-02-28T04:46:15;6.40;99.90
51557;DHT22;38766;53.194;5.532;2023-02-28T04:48:42;6.40;99.90
51557;DHT22;38766;53.194;5.532;2023-02-28T04:51:11;6.40;99.90
51557;DHT22;38766;53.194;5.532;2023-02-28T04:53:38;6.40;99.90
51557;DHT22;38766;53.194;5.532;2023-02-28T04:56:05;6.40;99.90
51557;DHT22;38766;53.194;5.532;2023-02-28T04:58:32;6.40;99.90
51557;DHT22;38766;53.194;5.532;2023-02-28T05:01:06;6.40;99.90
51557;DHT22;38766;53.194;5.532;2023-02-28T05:03:41;6.40;99.90
51557;DHT22;38766;53.194;5.532;2023-02-28T05:06:08;6.40;99.90
51557;DHT22;38766;53.194;5.532;2023-02-28T05:08:34;6.40;99.90
51557;DHT22;38766;53.194;5.532;2023-02-28T05:11:00;6.40;99.90
51557;DHT22;38766;53.194;5.532;2023-02-28T05:13:27;6.40;99.90
51557;DHT22;38766;53.194;5.532;2023-02-28T05:15:53;6.40;99.90
51557;DHT22;38766;53.194;5.532;2023-02-28T05:18:19;6.40;99.90
51557;DHT22;38766;53.194;5.532;2023-02-28T05:20:44;6.40;99.90
51557;DHT22;38766;53.194;5.532;2023-02-28T05:23:14;6.40;99.90
51557;DHT22;38766;53.194;5.532;2023-02-28T05:25:41;6.40;99.90
51557;DHT22;38766;53.194;5.532;2023-02-28T05:28:07;6.40;99.90
51557;DHT22;38766;53.194;5.532;2023-02-28T05:30:32;6.40;99.90
51557;DHT22;38766;53.194;5.532;2023-02-28T05:32:58;6.50;99.90
51557;DHT22;38766;53.194;5.532;2023-02-28T05:35:24;6.50;99.90
51557;DHT22;38766;53.194;5.532;2023-02-28T05:37:50;6.50;99.90
51557;DHT22;38766;53.194;5.532;2023-02-28T05:40:16;6.40;99.90
51557;DHT22;38766;53.194;5.532;2023-02-28T05:42:42;6.40;99.90
51557;DHT22;38766;53.194;5.532;2023-02-28T05:45:08;6.40;99.90
51557;DHT22;38766;53.194;5.532;2023-02-28T05:47:35;6.50;99.90
51557;DHT22;38766;53.194;5.532;2023-02-28T05:50:00;6.40;99.90
51557;DHT22;38766;53.194;5.532;2023-02-28T05:52:27;6.50;99.90
51557;DHT22;38766;53.194;5.532;2023-02-28T05:54:53;6.50;99.90
51557;DHT22;38766;53.194;5.532;2023-02-28T05:57:19;6.50;99.90
51557;DHT22;38766;53.194;5.532;2023-02-28T05:59:44;6.50;99.90
51557;DHT22;38766;53.194;5.532;2023-02-28T06:02:14;6.60;99.90
51557;DHT22;38766;53.194;5.532;2023-02-28T06:04:41;6.50;99.90
51557;DHT22;38766;53.194;5.532;2023-02-28T06:07:07;6.50;99.90
51557;DHT22;38766;53.194;5.532;2023-02-28T06:09:33;6.50;99.90
51557;DHT22;38766;53.194;5.532;2023-02-28T06:12:00;6.50;99.90
51557;DHT22;38766;53.194;5.532;2023-02-28T06:14:28;6.50;99.90
51557;DHT22;38766;53.194;5.532;2023-02-28T06:16:53;6.50;99.90
51557;DHT22;38766;53.194;5.532;2023-02-28T06:19:19;6.50;99.90
51557;DHT22;38766;53.194;5.532;2023-02-28T06:21:45;6.50;99.90
51557;DHT22;38766;53.194;5.532;2023-02-28T06:24:14;6.50;99.90
51557;DHT22;38766;53.194;5.532;2023-02-28T06:26:39;6.50;99.90
51557;DHT22;38766;53.194;5.532;2023-02-28T06:29:05;6.50;99.90
51557;DHT22;38766;53.194;5.532;2023-02-28T06:31:30;6.50;99.90
51557;DHT22;38766;53.194;5.532;2023-02-28T06:33:56;6.50;99.90
51557;DHT22;38766;53.194;5.532;2023-02-28T06:36:22;6.60;99.90
51557;DHT22;38766;53.194;5.532;2023-02-28T06:38:48;6.60;99.90
51557;DHT22;38766;53.194;5.532;2023-02-28T06:41:21;6.60;99.90
51557;DHT22;38766;53.194;5.532;2023-02-28T06:43:47;6.60;99.90
51557;DHT22;38766;53.194;5.532;2023-02-28T06:46:13;6.60;99.90
51557;DHT22;38766;53.194;5.532;2023-02-28T06:48:40;6.60;99.90
51557;DHT22;38766;53.194;5.532;2023-02-28T06:51:11;6.60;99.90
51557;DHT22;38766;53.194;5.532;2023-02-28T06:53:38;6.60;99.90
51557;DHT22;38766;53.194;5.532;2023-02-28T06:56:07;6.60;99.90
51557;DHT22;38766;53.194;5.532;2023-02-28T06:58:34;6.60;99.90
51557;DHT22;38766;53.194;5.532;2023-02-28T07:01:01;6.60;99.90
51557;DHT22;38766;53.194;5.532;2023-02-28T07:03:27;6.60;99.90
51557;DHT22;38766;53.194;5.532;2023-02-28T07:05:52;6.60;99.90
51557;DHT22;38766;53.194;5.532;2023-02-28T07:08:18;6.60;99.90
51557;DHT22;38766;53.194;5.532;2023-02-28T07:10:44;6.60;99.90
51557;DHT22;38766;53.194;5.532;2023-02-28T07:13:10;6.60;99.90
51557;DHT22;38766;53.194;5.532;2023-02-28T07:15:36;6.70;99.90
51557;DHT22;38766;53.194;5.532;2023-02-28T07:18:03;6.70;99.90
51557;DHT22;38766;53.194;5.532;2023-02-28T07:20:28;6.60;99.90
51557;DHT22;38766;53.194;5.532;2023-02-28T07:22:54;6.70;99.90
51557;DHT22;38766;53.194;5.532;2023-02-28T07:25:24;6.60;99.90
51557;DHT22;38766;53.194;5.532;2023-02-28T07:27:50;6.50;99.90
51557;DHT22;38766;53.194;5.532;2023-02-28T07:30:16;6.30;99.90
51557;DHT22;38766;53.194;5.532;2023-02-28T07:32:41;6.10;99.90
51557;DHT22;38766;53.194;5.532;2023-02-28T07:35:07;5.90;99.90
51557;DHT22;38766;53.194;5.532;2023-02-28T07:37:33;5.60;99.90
51557;DHT22;38766;53.194;5.532;2023-02-28T07:40:06;5.50;99.90
51557;DHT22;38766;53.194;5.532;2023-02-28T07:42:37;5.30;99.90
51557;DHT22;38766;53.194;5.532;2023-02-28T07:45:04;5.10;99.90
51557;DHT22;38766;53.194;5.532;2023-02-28T07:47:30;5.00;99.90
51557;DHT22;38766;53.194;5.532;2023-02-28T07:49:56;5.00;99.90
51557;DHT22;38766;53.194;5.532;2023-02-28T07:52:22;4.80;99.90
51557;DHT22;38766;53.194;5.532;2023-02-28T07:54:52;4.70;99.90
51557;DHT22;38766;53.194;5.532;2023-02-28T07:57:18;4.60;99.90
51557;DHT22;38766;53.194;5.532;2023-02-28T07:59:44;4.60;99.90
51557;DHT22;38766;53.194;5.532;2023-02-28T08:02:14;4.50;99.90
51557;DHT22;38766;53.194;5.532;2023-02-28T08:04:40;4.50;99.90
51557;DHT22;38766;53.194;5.532;2023-02-28T08:07:06;4.60;99.90
51557;DHT22;38766;53.194;5.532;2023-02-28T08:09:31;4.50;99.90
51557;DHT22;38766;53.194;5.532;2023-02-28T08:11:57;4.40;99.90
51557;DHT22;38766;53.194;5.532;2023-02-28T08:14:23;4.40;99.90
51557;DHT22;38766;53.194;5.532;2023-02-28T08:16:48;4.40;99.90
51557;DHT22;38766;53.194;5.532;2023-02-28T08:19:14;4.50;99.90
51557;DHT22;38766;53.194;5.532;2023-02-28T08:21:40;4.40;99.90
51557;DHT22;38766;53.194;5.532;2023-02-28T08:24:06;4.40;99.90
51557;DHT22;38766;53.194;5.532;2023-02-28T08:26:32;4.40;99.90
51557;DHT22;38766;53.194;5.532;2023-02-28T08:28:57;4.40;99.90
51557;DHT22;38766;53.194;5.532;2023-02-28T08:31:23;4.40;99.90
51557;DHT22;38766;53.194;5.532;2023-02-28T08:33:49;4.40;99.90
51557;DHT22;38766;53.194;5.532;2023-02-28T08:36:17;4.50;99.90
51557;DHT22;38766;53.194;5.532;2023-02-28T08:38:43;4.40;99.90
51557;DHT22;38766;53.194;5.532;2023-02-28T08:41:12;4.40;99.90
51557;DHT22;38766;53.194;5.532;2023-02-28T08:43:38;4.50;99.90
51557;DHT22;38766;53.194;5.532;2023-02-28T08:46:04;4.40;99.90
51557;DHT22;38766;53.194;5.532;2023-02-28T08:48:31;4.50;99.90
51557;DHT22;38766;53.194;5.532;2023-02-28T08:51:09;4.40;99.90
51557;DHT22;38766;53.194;5.532;2023-02-28T08:53:38;4.50;99.90
51557;DHT22;38766;53.194;5.532;2023-02-28T08:56:07;4.40;99.90
51557;DHT22;38766;53.194;5.532;2023-02-28T08:58:33;4.40;99.90
51557;DHT22;38766;53.194;5.532;2023-02-28T09:01:00;4.40;99.90
51557;DHT22;38766;53.194;5.532;2023-02-28T09:03:32;4.50;99.90
51557;DHT22;38766;53.194;5.532;2023-02-28T09:05:59;4.50;99.90
51557;DHT22;38766;53.194;5.532;2023-02-28T09:08:27;4.40;99.90
51557;DHT22;38766;53.194;5.532;2023-02-28T09:10:52;4.40;99.90
51557;DHT22;38766;53.194;5.532;2023-02-28T09:13:19;4.40;99.90
51557;DHT22;38766;53.194;5.532;2023-02-28T09:15:45;4.40;99.90
51557;DHT22;38766;53.194;5.532;2023-02-28T09:18:12;4.40;99.90
51557;DHT22;38766;53.194;5.532;2023-02-28T09:20:39;4.30;99.90
51557;DHT22;38766;53.194;5.532;2023-02-28T09:23:06;4.30;99.90
51557;DHT22;38766;53.194;5.532;2023-02-28T09:25:32;4.30;99.90
51557;DHT22;38766;53.194;5.532;2023-02-28T09:28:04;4.30;99.90
51557;DHT22;38766;53.194;5.532;2023-02-28T09:30:30;4.40;99.90
51557;DHT22;38766;53.194;5.532;2023-02-28T09:32:56;4.40;99.90
51557;DHT22;38766;53.194;5.532;2023-02-28T09:35:23;4.30;99.90
51557;DHT22;38766;53.194;5.532;2023-02-28T09:37:50;4.40;99.90
51557;DHT22;38766;53.194;5.532;2023-02-28T09:40:22;4.40;99.90
51557;DHT22;38766;53.194;5.532;2023-02-28T09:42:51;4.40;99.90
51557;DHT22;38766;53.194;5.532;2023-02-28T09:45:30;4.40;99.90
51557;DHT22;38766;53.194;5.532;2023-02-28T09:48:10;4.50;99.90
51557;DHT22;38766;53.194;5.532;2023-02-28T09:50:40;4.60;99.90
51557;DHT22;38766;53.194;5.532;2023-02-28T09:56:02;4.70;99.90
51557;DHT22;38766;53.194;5.532;2023-02-28T10:01:09;4.90;99.90
51557;DHT22;38766;53.194;5.532;2023-02-28T10:03:45;5.00;99.90
51557;DHT22;38766;53.194;5.532;2023-02-28T10:06:20;5.00;99.90
51557;DHT22;38766;53.194;5.532;2023-02-28T10:11:16;5.10;99.90
51557;DHT22;38766;53.194;5.532;2023-02-28T10:16:52;5.20;99.90
51557;DHT22;38766;53.194;5.532;2023-02-28T10:27:01;5.40;99.90
51557;DHT22;38766;53.194;5.532;2023-02-28T10:29:31;5.50;99.90
51557;DHT22;38766;53.194;5.532;2023-02-28T10:32:01;5.40;99.90
51557;DHT22;38766;53.194;5.532;2023-02-28T10:34:27;5.40;99.90
51557;DHT22;38766;53.194;5.532;2023-02-28T10:36:53;5.40;99.90
51557;DHT22;38766;53.194;5.532;2023-02-28T10:42:05;5.50;99.90
51557;DHT22;38766;53.194;5.532;2023-02-28T10:44:43;5.60;99.90
51557;DHT22;38766;53.194;5.532;2023-02-28T10:47:15;5.70;99.90
51557;DHT22;38766;53.194;5.532;2023-02-28T10:49:48;5.70;99.90
51557;DHT22;38766;53.194;5.532;2023-02-28T10:52:39;5.80;99.90
51557;DHT22;38766;53.194;5.532;2023-02-28T10:55:19;5.80;99.90
51557;DHT22;38766;53.194;5.532;2023-02-28T10:57:46;5.90;99.90
51557;DHT22;38766;53.194;5.532;2023-02-28T11:00:24;6.00;99.90
51557;DHT22;38766;53.194;5.532;2023-02-28T11:02:51;6.10;99.90
51557;DHT22;38766;53.194;5.532;2023-02-28T11:05:32;6.30;99.90
51557;DHT22;38766;53.194;5.532;2023-02-28T11:08:12;6.50;99.90
51557;DHT22;38766;53.194;5.532;2023-02-28T11:10:39;6.70;99.90
51557;DHT22;38766;53.194;5.532;2023-02-28T11:13:17;6.80;99.90
51557;DHT22;38766;53.194;5.532;2023-02-28T11:15:51;6.90;99.90
51557;DHT22;38766;53.194;5.532;2023-02-28T11:18:23;7.00;99.90
51557;DHT22;38766;53.194;5.532;2023-02-28T11:20:53;7.30;99.90
51557;DHT22;38766;53.194;5.532;2023-02-28T11:23:21;7.50;99.90
51557;DHT22;38766;53.194;5.532;2023-02-28T11:25:55;7.70;99.90
51557;DHT22;38766;53.194;5.532;2023-02-28T11:28:33;7.90;99.90
51557;DHT22;38766;53.194;5.532;2023-02-28T11:31:04;7.90;99.90
51557;DHT22;38766;53.194;5.532;2023-02-28T11:33:49;7.80;99.90
51557;DHT22;38766;53.194;5.532;2023-02-28T11:36:22;7.70;99.90
51557;DHT22;38766;53.194;5.532;2023-02-28T11:38:59;7.50;99.90
51557;DHT22;38766;53.194;5.532;2023-02-28T11:46:58;7.20;99.90
51557;DHT22;38766;53.194;5.532;2023-02-28T11:49:43;7.30;99.90
51557;DHT22;38766;53.194;5.532;2023-02-28T11:52:29;7.30;99.90
51557;DHT22;38766;53.194;5.532;2023-02-28T12:01:05;7.40;99.90
51557;DHT22;38766;53.194;5.532;2023-02-28T12:08:59;7.70;99.90
51557;DHT22;38766;53.194;5.532;2023-02-28T12:17:14;7.80;99.90
51557;DHT22;38766;53.194;5.532;2023-02-28T12:22:37;8.00;99.90
51557;DHT22;38766;53.194;5.532;2023-02-28T12:27:36;8.10;99.90
51557;DHT22;38766;53.194;5.532;2023-02-28T12:30:26;8.10;99.90
51557;DHT22;38766;53.194;5.532;2023-02-28T12:33:06;8.10;99.90
51557;DHT22;38766;53.194;5.532;2023-02-28T12:35:34;8.10;99.90
51557;DHT22;38766;53.194;5.532;2023-02-28T12:43:48;8.10;99.90
51557;DHT22;38766;53.194;5.532;2023-02-28T12:46:21;8.10;99.90
51557;DHT22;38766;53.194;5.532;2023-02-28T12:48:55;8.10;99.90
51557;DHT22;38766;53.194;5.532;2023-02-28T12:51:23;8.10;99.90
51557;DHT22;38766;53.194;5.532;2023-02-28T12:54:24;8.10;99.90
51557;DHT22;38766;53.194;5.532;2023-02-28T12:57:09;8.00;99.90
51557;DHT22;38766;53.194;5.532;2023-02-28T13:04:58;8.20;99.90
51557;DHT22;38766;53.194;5.532;2023-02-28T13:07:33;8.20;99.90
51557;DHT22;38766;53.194;5.532;2023-02-28T13:10:04;8.30;99.90
51557;DHT22;38766;53.194;5.532;2023-02-28T13:12:32;8.30;99.90
51557;DHT22;38766;53.194;5.532;2023-02-28T13:17:55;8.40;99.90
51557;DHT22;38766;53.194;5.532;2023-02-28T13:20:26;8.30;99.90
51557;DHT22;38766;53.194;5.532;2023-02-28T13:22:53;8.40;99.90
51557;DHT22;38766;53.194;5.532;2023-02-28T13:28:11;8.30;99.90
51557;DHT22;38766;53.194;5.532;2023-02-28T13:33:31;8.30;99.90
51557;DHT22;38766;53.194;5.532;2023-02-28T13:38:44;8.40;99.90
51557;DHT22;38766;53.194;5.532;2023-02-28T13:46:38;8.80;99.90
51557;DHT22;38766;53.194;5.532;2023-02-28T13:49:27;8.90;99.90
51557;DHT22;38766;53.194;5.532;2023-02-28T14:01:01;9.10;99.90
51557;DHT22;38766;53.194;5.532;2023-02-28T14:06:30;9.10;99.90
51557;DHT22;38766;53.194;5.532;2023-02-28T14:15:01;9.10;99.90
51557;DHT22;38766;53.194;5.532;2023-02-28T14:17:28;9.10;99.90
51557;DHT22;38766;53.194;5.532;2023-02-28T14:19:53;9.00;99.90
51557;DHT22;38766;53.194;5.532;2023-02-28T14:22:49;9.00;99.90
51557;DHT22;38766;53.194;5.532;2023-02-28T14:25:40;9.00;99.90
51557;DHT22;38766;53.194;5.532;2023-02-28T14:28:27;9.00;99.90
51557;DHT22;38766;53.194;5.532;2023-02-28T14:31:32;9.00;99.90
51557;DHT22;38766;53.194;5.532;2023-02-28T14:36:50;8.80;99.90
51557;DHT22;38766;53.194;5.532;2023-02-28T14:39:21;8.70;99.90
51557;DHT22;38766;53.194;5.532;2023-02-28T14:41:47;8.60;99.90
51557;DHT22;38766;53.194;5.532;2023-02-28T14:46:42;8.40;99.90
51557;DHT22;38766;53.194;5.532;2023-02-28T14:49:28;8.40;99.90
51557;DHT22;38766;53.194;5.532;2023-02-28T14:54:31;8.30;99.90
51557;DHT22;38766;53.194;5.532;2023-02-28T14:56:57;8.30;99.90
51557;DHT22;38766;53.194;5.532;2023-02-28T14:59:29;8.30;99.90
51557;DHT22;38766;53.194;5.532;2023-02-28T15:02:21;8.30;99.90
51557;DHT22;38766;53.194;5.532;2023-02-28T15:04:58;8.40;99.90
51557;DHT22;38766;53.194;5.532;2023-02-28T15:07:25;8.40;99.90
51557;DHT22;38766;53.194;5.532;2023-02-28T15:10:20;8.40;99.90
51557;DHT22;38766;53.194;5.532;2023-02-28T15:15:38;8.40;99.90
51557;DHT22;38766;53.194;5.532;2023-02-28T15:18:06;8.40;99.90
51557;DHT22;38766;53.194;5.532;2023-02-28T15:20:33;8.40;99.90
51557;DHT22;38766;53.194;5.532;2023-02-28T15:23:01;8.40;99.90
51557;DHT22;38766;53.194;5.532;2023-02-28T15:25:27;8.40;99.90
51557;DHT22;38766;53.194;5.532;2023-02-28T15:27:55;8.40;99.90
51557;DHT22;38766;53.194;5.532;2023-02-28T15:30:26;8.40;99.90
51557;DHT22;38766;53.194;5.532;2023-02-28T15:33:26;8.40;99.90
51557;DHT22;38766;53.194;5.532;2023-02-28T15:36:16;8.40;99.90
51557;DHT22;38766;53.194;5.532;2023-02-28T15:38:51;8.40;99.90
51557;DHT22;38766;53.194;5.532;2023-02-28T15:41:35;8.40;99.90
51557;DHT22;38766;53.194;5.532;2023-02-28T15:47:05;8.30;99.90
51557;DHT22;38766;53.194;5.532;2023-02-28T15:49:51;8.20;99.90
51557;DHT22;38766;53.194;5.532;2023-02-28T15:54:57;8.20;99.90
51557;DHT22;38766;53.194;5.532;2023-02-28T15:57:28;8.20;99.90
51557;DHT22;38766;53.194;5.532;2023-02-28T16:00:00;8.20;99.90
51557;DHT22;38766;53.194;5.532;2023-02-28T16:02:33;8.10;99.90
51557;DHT22;38766;53.194;5.532;2023-02-28T16:07:36;8.10;99.90
51557;DHT22;38766;53.194;5.532;2023-02-28T16:10:02;8.00;99.90
51557;DHT22;38766;53.194;5.532;2023-02-28T16:12:30;8.00;99.90
51557;DHT22;38766;53.194;5.532;2023-02-28T16:14:59;8.00;99.90
51557;DHT22;38766;53.194;5.532;2023-02-28T16:17:28;7.90;99.90
51557;DHT22;38766;53.194;5.532;2023-02-28T16:19:55;7.90;99.90
51557;DHT22;38766;53.194;5.532;2023-02-28T16:22:21;7.80;99.90
51557;DHT22;38766;53.194;5.532;2023-02-28T16:24:47;7.70;99.90
51557;DHT22;38766;53.194;5.532;2023-02-28T16:27:18;7.70;99.90
51557;DHT22;38766;53.194;5.532;2023-02-28T16:29:46;7.70;99.90
51557;DHT22;38766;53.194;5.532;2023-02-28T16:32:14;7.60;99.90
51557;DHT22;38766;53.194;5.532;2023-02-28T16:34:39;7.50;99.90
51557;DHT22;38766;53.194;5.532;2023-02-28T16:37:14;7.50;99.90
51557;DHT22;38766;53.194;5.532;2023-02-28T16:39:40;7.40;99.90
51557;DHT22;38766;53.194;5.532;2023-02-28T16:42:07;7.40;99.90
51557;DHT22;38766;53.194;5.532;2023-02-28T16:44:36;7.30;99.90
51557;DHT22;38766;53.194;5.532;2023-02-28T16:47:03;7.40;99.90
51557;DHT22;38766;53.194;5.532;2023-02-28T16:49:29;7.30;99.90
51557;DHT22;38766;53.194;5.532;2023-02-28T16:51:55;7.30;99.90
51557;DHT22;38766;53.194;5.532;2023-02-28T16:54:20;7.20;99.90
51557;DHT22;38766;53.194;5.532;2023-02-28T16:56:47;7.20;99.90
51557;DHT22;38766;53.194;5.532;2023-02-28T16:59:17;7.20;99.90
51557;DHT22;38766;53.194;5.532;2023-02-28T17:01:43;7.10;99.90
51557;DHT22;38766;53.194;5.532;2023-02-28T17:04:10;7.10;99.90
51557;DHT22;38766;53.194;5.532;2023-02-28T17:06:36;7.00;99.90
51557;DHT22;38766;53.194;5.532;2023-02-28T17:09:02;7.00;99.90
51557;DHT22;38766;53.194;5.532;2023-02-28T17:11:28;7.00;99.90
51557;DHT22;38766;53.194;5.532;2023-02-28T17:13:54;6.90;99.90
51557;DHT22;38766;53.194;5.532;2023-02-28T17:16:27;6.90;99.90
51557;DHT22;38766;53.194;5.532;2023-02-28T17:18:59;6.90;99.90
51557;DHT22;38766;53.194;5.532;2023-02-28T17:21:25;6.80;99.90
51557;DHT22;38766;53.194;5.532;2023-02-28T17:23:50;6.80;99.90
51557;DHT22;38766;53.194;5.532;2023-02-28T17:26:18;6.80;99.90
51557;DHT22;38766;53.194;5.532;2023-02-28T17:28:50;6.80;99.90
51557;DHT22;38766;53.194;5.532;2023-02-28T17:31:16;6.70;99.90
51557;DHT22;38766;53.194;5.532;2023-02-28T17:33:43;6.70;99.90
51557;DHT22;38766;53.194;5.532;2023-02-28T17:36:14;6.70;99.90
51557;DHT22;38766;53.194;5.532;2023-02-28T17:38:40;6.60;99.90
51557;DHT22;38766;53.194;5.532;2023-02-28T17:41:06;6.50;99.90
51557;DHT22;38766;53.194;5.532;2023-02-28T17:43:31;6.50;99.90
51557;DHT22;38766;53.194;5.532;2023-02-28T17:45:57;6.50;99.90
51557;DHT22;38766;53.194;5.532;2023-02-28T17:48:24;6.50;99.90
51557;DHT22;38766;53.194;5.532;2023-02-28T17:50:50;6.40;99.90
51557;DHT22;38766;53.194;5.532;2023-02-28T17:53:15;6.50;99.90
51557;DHT22;38766;53.194;5.532;2023-02-28T17:55:41;6.40;99.90
51557;DHT22;38766;53.194;5.532;2023-02-28T17:58:09;6.40;99.90
51557;DHT22;38766;53.194;5.532;2023-02-28T18:00:36;6.30;99.90
51557;DHT22;38766;53.194;5.532;2023-02-28T18:03:03;6.30;99.90
51557;DHT22;38766;53.194;5.532;2023-02-28T18:05:29;6.30;99.90
51557;DHT22;38766;53.194;5.532;2023-02-28T18:07:56;6.30;99.90
51557;DHT22;38766;53.194;5.532;2023-02-28T18:10:22;6.30;99.90
51557;DHT22;38766;53.194;5.532;2023-02-28T18:12:49;6.30;99.90
51557;DHT22;38766;53.194;5.532;2023-02-28T18:15:16;6.30;99.90
51557;DHT22;38766;53.194;5.532;2023-02-28T18:17:42;6.30;99.90
51557;DHT22;38766;53.194;5.532;2023-02-28T18:20:10;6.30;99.90
51557;DHT22;38766;53.194;5.532;2023-02-28T18:22:36;6.30;99.90